createdAt,value
2022-09-24T00:00:01.917Z,13.60
2022-09-24T00:03:12.591Z,13.70
2022-09-24T00:06:03.721Z,13.00
2022-09-24T00:08:55.416Z,13.10
2022-09-24T00:11:45.819Z,13.00
2022-09-24T00:14:34.018Z,12.70
2022-09-24T00:17:21.992Z,12.10
2022-09-24T00:20:10.027Z,12.40
2022-09-24T00:22:57.975Z,13.30
2022-09-24T00:26:06.345Z,12.70
2022-09-24T00:28:54.516Z,13.60
2022-09-24T00:31:42.749Z,13.40
2022-09-24T00:34:30.790Z,12.80
2022-09-24T00:37:21.589Z,13.60
2022-09-24T00:40:10.906Z,13.60
2022-09-24T00:42:59.499Z,14.30
2022-09-24T00:45:50.664Z,13.80
2022-09-24T00:48:40.639Z,13.20
2022-09-24T00:51:30.684Z,13.70
2022-09-24T00:54:26.637Z,12.90
2022-09-24T00:57:17.254Z,13.30
2022-09-24T01:00:07.559Z,11.70
2022-09-24T01:03:04.120Z,12.70
2022-09-24T01:05:52.183Z,11.00
2022-09-24T01:08:40.740Z,12.30
2022-09-24T01:11:51.531Z,14.50
2022-09-24T01:15:07.634Z,14.70
2022-09-24T01:18:01.451Z,14.80
2022-09-24T01:21:33.954Z,14.10
2022-09-24T01:24:38.840Z,12.70
2022-09-24T01:28:09.694Z,13.40
2022-09-24T01:31:18.959Z,12.60
2022-09-24T01:34:09.399Z,12.20
2022-09-24T01:37:00.371Z,11.40
2022-09-24T01:39:49.961Z,10.10
2022-09-24T01:42:41.007Z,10.20
2022-09-24T01:45:32.173Z,9.40
2022-09-24T01:48:22.139Z,10.00
2022-09-24T01:51:27.402Z,10.00
2022-09-24T01:54:43.546Z,10.40
2022-09-24T01:57:48.559Z,9.20
2022-09-24T02:00:42.954Z,10.00
2022-09-24T02:03:37.062Z,7.70
2022-09-24T02:06:38.862Z,7.00
2022-09-24T02:09:33.880Z,7.50
2022-09-24T02:12:38.086Z,6.20
2022-09-24T02:15:41.062Z,5.90
2022-09-24T02:18:36.400Z,6.50
2022-09-24T02:21:26.495Z,6.50
2022-09-24T02:24:20.784Z,7.10
2022-09-24T02:27:09.326Z,7.00
2022-09-24T02:29:59.626Z,7.10
2022-09-24T02:32:49.463Z,7.70
2022-09-24T02:35:40.985Z,7.80
2022-09-24T02:38:28.819Z,7.20
2022-09-24T02:41:18.097Z,7.70
2022-09-24T02:44:08.767Z,6.60
2022-09-24T02:46:56.824Z,6.40
2022-09-24T02:49:44.927Z,6.50
2022-09-24T02:52:33.066Z,6.40
2022-09-24T02:55:21.749Z,6.40
2022-09-24T02:58:09.728Z,6.10
2022-09-24T03:00:58.205Z,6.30
2022-09-24T03:03:46.529Z,6.10
2022-09-24T03:06:34.988Z,5.80
2022-09-24T03:09:23.045Z,5.20
2022-09-24T03:12:11.356Z,5.70
2022-09-24T03:14:58.980Z,5.00
2022-09-24T03:17:46.864Z,4.70
2022-09-24T03:20:34.935Z,5.30
2022-09-24T03:23:23.235Z,5.50
2022-09-24T03:26:11.920Z,5.30
2022-09-24T03:28:59.752Z,4.60
2022-09-24T03:31:47.691Z,4.60
2022-09-24T03:34:35.689Z,4.50
2022-09-24T03:37:23.620Z,5.10
2022-09-24T03:40:11.530Z,3.90
2022-09-24T03:42:59.385Z,4.10
2022-09-24T03:45:47.975Z,4.70
2022-09-24T03:48:38.899Z,4.70
2022-09-24T03:51:27.321Z,4.90
2022-09-24T03:54:15.444Z,5.40
2022-09-24T03:57:03.536Z,4.70
2022-09-24T03:59:53.662Z,5.00
2022-09-24T04:02:41.987Z,5.00
2022-09-24T04:05:30.797Z,4.30
2022-09-24T04:08:23.092Z,4.60
2022-09-24T04:11:11.222Z,4.90
2022-09-24T04:13:59.444Z,5.20
2022-09-24T04:16:47.736Z,4.50
2022-09-24T04:19:39.925Z,4.90
2022-09-24T04:22:29.380Z,4.10
2022-09-24T04:25:18.004Z,4.40
2022-09-24T04:28:08.944Z,4.40
2022-09-24T04:30:58.368Z,4.70
2022-09-24T04:33:46.047Z,4.40
2022-09-24T04:36:34.209Z,5.30
2022-09-24T04:39:26.897Z,6.00
2022-09-24T04:42:18.922Z,5.40
2022-09-24T04:45:08.848Z,5.10
2022-09-24T04:47:58.909Z,5.30
2022-09-24T04:50:47.457Z,3.80
2022-09-24T04:53:37.501Z,4.00
2022-09-24T04:56:25.820Z,4.10
2022-09-24T04:59:13.695Z,4.80
2022-09-24T05:02:08.640Z,3.90
2022-09-24T05:04:57.435Z,3.90
2022-09-24T05:07:45.691Z,4.00
2022-09-24T05:10:34.854Z,3.40
2022-09-24T05:13:23.021Z,3.50
2022-09-24T05:16:10.618Z,4.00
2022-09-24T05:18:58.967Z,4.20
2022-09-24T05:21:47.418Z,3.70
2022-09-24T05:24:35.705Z,3.80
2022-09-24T05:27:24.073Z,4.20
2022-09-24T05:30:13.348Z,4.10
2022-09-24T05:33:01.404Z,3.80
2022-09-24T05:35:58.284Z,4.40
2022-09-24T05:38:46.737Z,4.60
2022-09-24T05:41:34.498Z,4.20
2022-09-24T05:44:23.580Z,3.90
2022-09-24T05:47:11.305Z,4.00
2022-09-24T05:49:59.034Z,3.90
2022-09-24T05:52:47.289Z,4.30
2022-09-24T05:55:35.957Z,4.00
2022-09-24T05:58:25.048Z,4.40
2022-09-24T06:01:12.973Z,4.80
2022-09-24T06:04:04.786Z,4.80
2022-09-24T06:06:56.411Z,5.30
2022-09-24T06:09:44.402Z,5.10
2022-09-24T06:12:35.245Z,5.10
2022-09-24T06:15:23.643Z,5.90
2022-09-24T06:18:12.477Z,5.50
2022-09-24T06:21:07.933Z,7.80
2022-09-24T06:23:55.825Z,7.90
2022-09-24T06:26:43.609Z,9.70
2022-09-24T06:29:33.535Z,10.80
2022-09-24T06:32:24.489Z,11.20
2022-09-24T06:35:12.312Z,10.60
2022-09-24T06:38:00.452Z,9.30
2022-09-24T06:40:51.039Z,9.30
2022-09-24T06:43:39.419Z,9.70
2022-09-24T06:46:27.484Z,8.70
2022-09-24T06:49:15.541Z,10.40
2022-09-24T06:52:05.153Z,11.60
2022-09-24T06:54:56.087Z,12.30
2022-09-24T06:57:44.620Z,8.70
2022-09-24T07:00:33.543Z,9.50
2022-09-24T07:03:22.415Z,8.90
2022-09-24T07:06:10.668Z,8.90
2022-09-24T07:08:58.888Z,8.20
2022-09-24T07:11:46.957Z,7.60
2022-09-24T07:14:37.851Z,7.90
2022-09-24T07:17:33.541Z,7.60
2022-09-24T07:20:21.954Z,9.20
2022-09-24T07:23:13.217Z,7.60
2022-09-24T07:26:01.366Z,8.50
2022-09-24T07:28:49.248Z,8.70
2022-09-24T07:31:37.651Z,8.80
2022-09-24T07:34:25.818Z,8.40
2022-09-24T07:37:14.320Z,8.30
2022-09-24T07:40:02.303Z,8.40
2022-09-24T07:42:50.242Z,8.50
2022-09-24T07:45:38.946Z,7.90
2022-09-24T07:48:37.275Z,6.70
2022-09-24T07:51:28.479Z,6.00
2022-09-24T07:54:17.563Z,4.50
2022-09-24T07:57:13.874Z,4.00
2022-09-24T08:00:01.751Z,3.90
2022-09-24T08:02:59.505Z,4.10
2022-09-24T08:05:48.061Z,3.90
2022-09-24T08:08:36.079Z,3.50
2022-09-24T08:11:24.245Z,2.90
2022-09-24T08:14:12.433Z,2.30
2022-09-24T08:17:01.936Z,2.60
2022-09-24T08:19:49.605Z,2.70
2022-09-24T08:22:37.621Z,2.80
2022-09-24T08:25:25.461Z,2.30
2022-09-24T08:28:17.142Z,2.20
2022-09-24T08:31:11.396Z,2.20
2022-09-24T08:33:59.120Z,2.10
2022-09-24T08:36:47.498Z,2.50
2022-09-24T08:39:35.893Z,2.20
2022-09-24T08:42:42.024Z,2.10
2022-09-24T08:45:59.217Z,2.00
2022-09-24T08:48:53.643Z,2.60
2022-09-24T08:51:57.461Z,2.40
2022-09-24T08:54:48.895Z,2.00
2022-09-24T08:58:08.978Z,2.00
2022-09-24T09:01:13.464Z,1.90
2022-09-24T09:04:28.182Z,2.00
2022-09-24T09:07:29.821Z,2.10
2022-09-24T09:10:36.247Z,1.90
2022-09-24T09:13:33.091Z,1.90
2022-09-24T09:16:41.411Z,1.70
2022-09-24T09:19:35.609Z,1.60
2022-09-24T09:22:31.677Z,1.60
2022-09-24T09:25:28.602Z,1.70
2022-09-24T09:28:19.957Z,1.40
2022-09-24T09:31:20.233Z,1.90
2022-09-24T09:34:31.663Z,1.60
2022-09-24T09:37:41.584Z,1.60
2022-09-24T09:40:46.173Z,1.50
2022-09-24T09:43:35.611Z,1.60
2022-09-24T09:46:31.743Z,1.60
2022-09-24T09:49:20.341Z,1.50
2022-09-24T09:52:21.253Z,1.70
2022-09-24T09:55:28.195Z,1.70
2022-09-24T09:58:24.571Z,1.80
2022-09-24T10:01:20.222Z,1.70
2022-09-24T10:04:41.999Z,1.80
2022-09-24T10:07:31.887Z,1.30
2022-09-24T10:10:24.682Z,1.50
2022-09-24T10:13:13.555Z,1.80
2022-09-24T10:16:08.995Z,1.90
2022-09-24T10:18:57.274Z,1.60
2022-09-24T10:21:45.166Z,1.60
2022-09-24T10:24:36.693Z,1.60
2022-09-24T10:27:36.731Z,1.90
2022-09-24T10:30:34.018Z,1.90
2022-09-24T10:33:23.009Z,1.80
2022-09-24T10:36:30.610Z,2.80
2022-09-24T10:39:18.783Z,1.90
2022-09-24T10:42:08.217Z,1.90
2022-09-24T10:45:01.419Z,1.70
2022-09-24T10:47:59.560Z,2.30
2022-09-24T10:51:29.590Z,2.70
2022-09-24T10:55:10.312Z,2.20
2022-09-24T10:58:31.981Z,2.10
2022-09-24T11:01:47.821Z,2.60
2022-09-24T11:05:04.318Z,2.30
2022-09-24T11:08:21.730Z,2.30
2022-09-24T11:11:57.277Z,1.90
2022-09-24T11:15:19.634Z,2.30
2022-09-24T11:18:21.095Z,2.20
2022-09-24T11:21:38.634Z,2.10
2022-09-24T11:25:08.505Z,1.90
2022-09-24T11:28:29.898Z,2.00
2022-09-24T11:31:27.965Z,2.10
2022-09-24T11:35:15.805Z,2.00
2022-09-24T11:38:15.666Z,2.20
2022-09-24T11:41:05.878Z,2.00
2022-09-24T11:44:21.605Z,2.40
2022-09-24T11:48:02.495Z,2.00
2022-09-24T11:51:05.135Z,1.80
2022-09-24T11:54:03.340Z,1.80
2022-09-24T11:57:01.445Z,1.60
2022-09-24T11:59:58.849Z,1.70
2022-09-24T12:03:06.673Z,1.90
2022-09-24T12:06:03.323Z,1.90
2022-09-24T12:08:56.104Z,1.70
2022-09-24T12:12:14.417Z,1.70
2022-09-24T12:15:34.921Z,1.90
2022-09-24T12:19:24.540Z,1.80
2022-09-24T12:22:17.615Z,1.80
2022-09-24T12:25:12.188Z,1.90
2022-09-24T12:28:01.866Z,2.40
2022-09-24T12:31:16.262Z,2.30
2022-09-24T12:34:28.148Z,2.10
2022-09-24T12:37:22.933Z,2.50
2022-09-24T12:40:55.243Z,2.60
2022-09-24T12:44:15.223Z,2.80
2022-09-24T12:47:18.207Z,2.40
2022-09-24T12:50:08.950Z,2.50
2022-09-24T12:52:58.330Z,2.40
2022-09-24T12:55:47.365Z,2.10
2022-09-24T12:58:45.525Z,2.20
2022-09-24T13:01:34.686Z,2.70
2022-09-24T13:04:28.313Z,2.30
2022-09-24T13:07:37.766Z,2.30
2022-09-24T13:10:36.751Z,2.70
2022-09-24T13:13:33.015Z,2.30
2022-09-24T13:16:21.537Z,3.10
2022-09-24T13:19:44.953Z,2.80
2022-09-24T13:22:36.194Z,2.90
2022-09-24T13:25:27.030Z,2.80
2022-09-24T13:28:48.918Z,2.80
2022-09-24T13:31:55.381Z,2.60
2022-09-24T13:34:47.586Z,2.80
2022-09-24T13:37:41.744Z,2.90
2022-09-24T13:40:39.081Z,2.90
2022-09-24T13:44:03.899Z,2.70
2022-09-24T13:47:39.551Z,2.90
2022-09-24T13:50:48.764Z,4.20
2022-09-24T13:53:49.807Z,3.30
2022-09-24T13:56:38.064Z,3.70
2022-09-24T13:59:26.077Z,3.30
2022-09-24T14:02:37.567Z,2.90
2022-09-24T14:05:29.273Z,3.30
2022-09-24T14:08:24.477Z,2.80
2022-09-24T14:11:22.321Z,2.80
2022-09-24T14:14:16.250Z,3.20
2022-09-24T14:17:10.333Z,3.20
2022-09-24T14:19:58.558Z,2.80
2022-09-24T14:22:47.659Z,3.00
2022-09-24T14:25:37.598Z,3.20
2022-09-24T14:28:25.995Z,3.00
2022-09-24T14:31:14.232Z,3.50
2022-09-24T14:34:05.271Z,3.20
2022-09-24T14:37:01.221Z,3.10
2022-09-24T14:39:57.595Z,3.00
2022-09-24T14:42:58.368Z,3.40
2022-09-24T14:45:48.878Z,3.50
2022-09-24T14:48:36.872Z,3.90
2022-09-24T14:51:29.824Z,3.50
2022-09-24T14:54:40.475Z,3.30
2022-09-24T14:57:37.501Z,4.30
2022-09-24T15:00:33.047Z,4.00
2022-09-24T15:03:50.254Z,5.20
2022-09-24T15:06:38.727Z,5.80
2022-09-24T15:09:30.613Z,4.40
2022-09-24T15:12:32.265Z,3.80
2022-09-24T15:15:28.172Z,3.60
2022-09-24T15:18:18.600Z,3.60
2022-09-24T15:21:11.270Z,4.00
2022-09-24T15:23:58.961Z,3.40
2022-09-24T15:27:01.341Z,3.10
2022-09-24T15:29:50.389Z,3.70
2022-09-24T15:32:38.975Z,3.90
2022-09-24T15:35:26.991Z,3.50
2022-09-24T15:38:19.997Z,3.20
2022-09-24T15:41:09.414Z,3.10
2022-09-24T15:43:59.255Z,3.10
2022-09-24T15:46:48.544Z,3.00
2022-09-24T15:49:36.509Z,2.90
2022-09-24T15:52:27.755Z,3.00
2022-09-24T15:55:19.870Z,3.20
2022-09-24T15:58:19.050Z,3.00
2022-09-24T16:01:08.317Z,3.60
2022-09-24T16:03:56.728Z,3.60
2022-09-24T16:06:44.806Z,4.10
2022-09-24T16:09:32.804Z,4.10
2022-09-24T16:12:22.986Z,4.30
2022-09-24T16:15:16.576Z,4.70
2022-09-24T16:18:06.926Z,5.00
2022-09-24T16:20:56.379Z,4.60
2022-09-24T16:23:44.356Z,4.60
2022-09-24T16:26:32.499Z,5.10
2022-09-24T16:29:20.682Z,4.60
2022-09-24T16:32:09.153Z,5.10
2022-09-24T16:34:57.324Z,5.20
2022-09-24T16:37:45.527Z,5.60
2022-09-24T16:40:33.908Z,5.00
2022-09-24T16:43:23.030Z,5.40
2022-09-24T16:46:16.308Z,5.40
2022-09-24T16:49:07.473Z,5.50
2022-09-24T16:51:57.611Z,5.90
2022-09-24T16:54:46.066Z,6.20
2022-09-24T16:57:39.091Z,6.20
2022-09-24T17:00:27.715Z,5.90
2022-09-24T17:03:16.995Z,6.00
2022-09-24T17:06:08.828Z,5.00
2022-09-24T17:09:16.509Z,4.40
2022-09-24T17:12:05.016Z,4.50
2022-09-24T17:14:58.099Z,4.50
2022-09-24T17:17:50.171Z,4.70
2022-09-24T17:20:38.805Z,5.00
2022-09-24T17:23:29.232Z,4.90
2022-09-24T17:26:21.767Z,4.70
2022-09-24T17:29:10.047Z,5.40
2022-09-24T17:31:58.107Z,4.70
2022-09-24T17:34:47.114Z,4.70
2022-09-24T17:37:35.067Z,5.80
2022-09-24T17:40:24.531Z,5.40
2022-09-24T17:43:12.860Z,6.80
2022-09-24T17:46:04.234Z,6.60
2022-09-24T17:48:56.180Z,7.90
2022-09-24T17:51:46.322Z,9.10
2022-09-24T17:54:37.893Z,10.90
2022-09-24T17:57:27.496Z,13.40
2022-09-24T18:00:15.764Z,15.30
2022-09-24T18:03:03.979Z,13.60
2022-09-24T18:06:03.014Z,13.00
2022-09-24T18:08:52.397Z,10.50
2022-09-24T18:11:44.570Z,10.50
2022-09-24T18:14:34.462Z,8.40
2022-09-24T18:17:22.740Z,8.80
2022-09-24T18:20:10.693Z,9.00
2022-09-24T18:22:58.620Z,8.10
2022-09-24T18:25:46.766Z,7.60
2022-09-24T18:28:34.639Z,7.00
2022-09-24T18:31:28.375Z,8.80
2022-09-24T18:34:16.874Z,11.10
2022-09-24T18:37:06.287Z,10.10
2022-09-24T18:39:54.158Z,12.10
2022-09-24T18:42:45.177Z,13.90
2022-09-24T18:45:36.960Z,15.50
2022-09-24T18:48:25.940Z,13.60
2022-09-24T18:51:20.574Z,14.50
2022-09-24T18:54:13.725Z,17.30
2022-09-24T18:57:03.062Z,15.60
2022-09-24T18:59:51.508Z,15.90
2022-09-24T19:02:39.657Z,18.20
2022-09-24T19:05:29.072Z,23.10
2022-09-24T19:08:23.372Z,19.80
2022-09-24T19:11:14.089Z,22.60
2022-09-24T19:14:03.619Z,21.00
2022-09-24T19:16:53.083Z,31.90
2022-09-24T19:19:41.500Z,26.20
2022-09-24T19:22:30.001Z,23.40
2022-09-24T19:25:18.127Z,24.80
2022-09-24T19:28:09.237Z,25.20
2022-09-24T19:30:57.445Z,23.40
2022-09-24T19:33:45.359Z,23.60
2022-09-24T19:36:43.681Z,24.00
2022-09-24T19:39:32.353Z,22.60
2022-09-24T19:42:20.340Z,22.20
2022-09-24T19:45:09.567Z,21.30
2022-09-24T19:47:59.262Z,20.60
2022-09-24T19:50:48.308Z,19.60
2022-09-24T19:54:07.826Z,19.80
2022-09-24T19:56:55.993Z,20.50
2022-09-24T19:59:44.126Z,19.70
2022-09-24T20:02:32.495Z,23.20
2022-09-24T20:05:21.590Z,24.40
2022-09-24T20:08:15.003Z,22.10
2022-09-24T20:11:11.444Z,26.80
2022-09-24T20:13:59.781Z,26.40
2022-09-24T20:16:48.627Z,26.30
2022-09-24T20:19:37.703Z,27.00
2022-09-24T20:22:26.454Z,23.20
2022-09-24T20:25:14.961Z,25.10
2022-09-24T20:28:03.301Z,24.80
2022-09-24T20:30:51.741Z,23.00
2022-09-24T20:33:41.569Z,23.90
2022-09-24T20:36:30.211Z,24.80
2022-09-24T20:39:19.647Z,24.60
2022-09-24T20:42:07.609Z,22.40
2022-09-24T20:44:56.381Z,22.10
2022-09-24T20:47:44.871Z,21.00
2022-09-24T20:50:35.322Z,19.70
2022-09-24T20:53:25.360Z,13.80
2022-09-24T20:56:18.808Z,16.30
2022-09-24T20:59:09.817Z,16.60
2022-09-24T21:01:58.482Z,11.80
2022-09-24T21:04:46.886Z,12.10
2022-09-24T21:07:35.884Z,11.50
2022-09-24T21:10:23.937Z,11.60
2022-09-24T21:13:13.283Z,11.00
2022-09-24T21:16:04.744Z,11.60
2022-09-24T21:18:56.230Z,10.70
2022-09-24T21:21:44.489Z,9.90
2022-09-24T21:24:33.146Z,9.90
2022-09-24T21:27:22.538Z,10.20
2022-09-24T21:30:12.456Z,10.20
2022-09-24T21:33:06.346Z,10.40
2022-09-24T21:35:58.010Z,10.10
2022-09-24T21:38:54.539Z,11.20
2022-09-24T21:41:43.861Z,11.20
2022-09-24T21:44:34.354Z,11.10
2022-09-24T21:47:22.202Z,11.10
2022-09-24T21:50:10.425Z,11.00
2022-09-24T21:52:58.822Z,11.20
2022-09-24T21:55:50.874Z,11.80
2022-09-24T21:58:38.638Z,11.50
2022-09-24T22:01:34.199Z,11.80
2022-09-24T22:04:23.249Z,12.80
2022-09-24T22:07:11.154Z,12.00
2022-09-24T22:09:59.547Z,13.10
2022-09-24T22:12:47.784Z,12.80
2022-09-24T22:15:36.579Z,12.90
2022-09-24T22:18:24.690Z,12.50
2022-09-24T22:21:14.825Z,13.10
2022-09-24T22:24:03.065Z,12.50
2022-09-24T22:26:57.278Z,13.90
2022-09-24T22:29:46.299Z,13.30
2022-09-24T22:32:34.512Z,13.00
2022-09-24T22:35:43.486Z,12.70
2022-09-24T22:38:32.452Z,14.10
2022-09-24T22:41:20.457Z,14.50
2022-09-24T22:44:12.409Z,13.80
2022-09-24T22:47:00.584Z,14.40
2022-09-24T22:49:48.713Z,13.90
2022-09-24T22:52:38.277Z,13.50
2022-09-24T22:55:26.423Z,13.10
2022-09-24T22:58:14.881Z,14.60
2022-09-24T23:01:12.541Z,13.90
2022-09-24T23:04:01.745Z,13.60
2022-09-24T23:06:50.185Z,13.20
2022-09-24T23:09:38.008Z,14.20
2022-09-24T23:12:26.132Z,14.70
2022-09-24T23:15:14.703Z,15.30
2022-09-24T23:18:02.590Z,14.70
2022-09-24T23:20:50.581Z,13.80
2022-09-24T23:23:39.601Z,14.30
2022-09-24T23:26:29.213Z,13.90
2022-09-24T23:29:16.998Z,14.50
2022-09-24T23:32:05.300Z,14.40
2022-09-24T23:34:53.763Z,13.60
2022-09-24T23:37:41.750Z,14.20
2022-09-24T23:40:29.680Z,12.60
2022-09-24T23:43:19.710Z,12.50
2022-09-24T23:46:10.263Z,10.20
2022-09-24T23:48:58.271Z,12.10
2022-09-24T23:51:46.154Z,14.80
2022-09-24T23:54:38.625Z,14.10
2022-09-24T23:57:26.762Z,12.20
